createdAt,value
2023-04-24T00:00:17.000Z,80.93
2023-04-24T00:01:18.000Z,80.90
2023-04-24T00:02:18.000Z,80.94
2023-04-24T00:03:20.000Z,80.81
2023-04-24T00:04:17.000Z,80.69
2023-04-24T00:05:17.000Z,80.64
2023-04-24T00:06:18.000Z,81.10
2023-04-24T00:07:19.000Z,81.12
2023-04-24T00:08:17.000Z,81.49
2023-04-24T00:09:17.000Z,81.28
2023-04-24T00:10:17.000Z,81.18
2023-04-24T00:11:17.000Z,81.34
2023-04-24T00:12:18.000Z,81.34
2023-04-24T00:13:17.000Z,81.47
2023-04-24T00:14:17.000Z,81.21
2023-04-24T00:15:17.000Z,81.51
2023-04-24T00:16:17.000Z,81.52
2023-04-24T00:17:20.000Z,82.07
2023-04-24T00:18:17.000Z,82.25
2023-04-24T00:19:20.000Z,82.05
2023-04-24T00:20:18.000Z,81.76
2023-04-24T00:21:18.000Z,81.82
2023-04-24T00:22:20.000Z,81.48
2023-04-24T00:23:18.000Z,81.59
2023-04-24T00:24:18.000Z,81.37
2023-04-24T00:25:18.000Z,82.03
2023-04-24T00:26:18.000Z,82.07
2023-04-24T00:27:18.000Z,81.99
2023-04-24T00:28:18.000Z,82.11
2023-04-24T00:29:18.000Z,81.96
2023-04-24T00:30:18.000Z,81.78
2023-04-24T00:31:18.000Z,81.73
2023-04-24T00:32:18.000Z,81.84
2023-04-24T00:33:18.000Z,81.71
2023-04-24T00:34:18.000Z,81.73
2023-04-24T00:35:19.000Z,81.84
2023-04-24T00:36:20.000Z,81.98
2023-04-24T00:37:18.000Z,82.05
2023-04-24T00:38:18.000Z,81.86
2023-04-24T00:39:18.000Z,81.78
2023-04-24T00:40:18.000Z,81.88
2023-04-24T00:41:18.000Z,81.99
2023-04-24T00:42:18.000Z,81.70
2023-04-24T00:43:18.000Z,81.63
2023-04-24T00:44:18.000Z,81.95
2023-04-24T00:45:19.000Z,81.95
2023-04-24T00:46:18.000Z,81.95
2023-04-24T00:47:18.000Z,81.82
2023-04-24T00:48:20.000Z,81.72
2023-04-24T00:49:18.000Z,82.00
2023-04-24T00:50:20.000Z,81.97
2023-04-24T00:51:18.000Z,82.13
2023-04-24T00:52:18.000Z,82.07
2023-04-24T00:53:18.000Z,81.99
2023-04-24T00:54:17.000Z,82.00
2023-04-24T00:55:18.000Z,82.20
2023-04-24T00:56:18.000Z,82.03
2023-04-24T00:57:18.000Z,82.12
2023-04-24T00:58:18.000Z,81.99
2023-04-24T00:59:18.000Z,81.86
2023-04-24T01:00:18.000Z,82.11
2023-04-24T01:01:20.000Z,82.04
2023-04-24T01:02:18.000Z,82.07
2023-04-24T01:03:23.000Z,81.76
2023-04-24T01:04:18.000Z,81.91
2023-04-24T01:05:18.000Z,81.96
2023-04-24T01:06:19.000Z,81.97
2023-04-24T01:07:20.000Z,81.92
2023-04-24T01:08:19.000Z,81.88
2023-04-24T01:09:18.000Z,81.88
2023-04-24T01:10:19.000Z,81.58
2023-04-24T01:11:18.000Z,81.67
2023-04-24T01:12:18.000Z,81.60
2023-04-24T01:13:18.000Z,81.64
2023-04-24T01:14:18.000Z,81.76
2023-04-24T01:15:18.000Z,81.91
2023-04-24T01:16:19.000Z,81.84
2023-04-24T01:17:18.000Z,82.01
2023-04-24T01:18:17.000Z,81.78
2023-04-24T01:19:18.000Z,81.92
2023-04-24T01:20:18.000Z,82.00
2023-04-24T01:21:20.000Z,81.92
2023-04-24T01:22:18.000Z,82.19
2023-04-24T01:23:18.000Z,82.15
2023-04-24T01:24:18.000Z,82.30
2023-04-24T01:25:17.000Z,82.37
2023-04-24T01:26:19.000Z,82.65
2023-04-24T01:27:18.000Z,82.85
2023-04-24T01:28:18.000Z,83.03
2023-04-24T01:29:18.000Z,82.96
2023-04-24T01:30:17.000Z,83.05
2023-04-24T01:31:17.000Z,82.74
2023-04-24T01:32:18.000Z,82.71
2023-04-24T01:33:19.000Z,82.72
2023-04-24T01:34:17.000Z,82.88
2023-04-24T01:35:18.000Z,83.32
2023-04-24T01:36:18.000Z,83.20
2023-04-24T01:37:17.000Z,83.17
2023-04-24T01:38:17.000Z,83.07
2023-04-24T01:39:19.000Z,82.74
2023-04-24T01:40:17.000Z,82.91
2023-04-24T01:41:18.000Z,82.92
2023-04-24T01:42:18.000Z,83.06
2023-04-24T01:43:18.000Z,83.00
2023-04-24T01:44:17.000Z,82.92
2023-04-24T01:45:17.000Z,82.92
2023-04-24T01:46:17.000Z,82.81
2023-04-24T01:47:17.000Z,82.91
2023-04-24T01:48:17.000Z,82.99
2023-04-24T01:49:17.000Z,83.07
2023-04-24T01:50:17.000Z,83.20
2023-04-24T01:51:17.000Z,83.08
2023-04-24T01:52:18.000Z,82.90
2023-04-24T01:53:17.000Z,82.85
2023-04-24T01:54:17.000Z,83.05
2023-04-24T01:55:17.000Z,83.06
2023-04-24T01:56:19.000Z,82.97
2023-04-24T01:57:17.000Z,82.98
2023-04-24T01:58:17.000Z,83.10
2023-04-24T01:59:19.000Z,83.22
2023-04-24T02:00:17.000Z,83.20
2023-04-24T02:01:19.000Z,83.09
2023-04-24T02:02:18.000Z,83.06
2023-04-24T02:03:17.000Z,83.27
2023-04-24T02:04:17.000Z,83.45
2023-04-24T02:05:17.000Z,83.24
2023-04-24T02:06:17.000Z,83.35
2023-04-24T02:07:17.000Z,83.51
2023-04-24T02:08:17.000Z,83.55
2023-04-24T02:09:17.000Z,83.57
2023-04-24T02:10:17.000Z,83.44
2023-04-24T02:11:17.000Z,83.33
2023-04-24T02:12:17.000Z,83.56
2023-04-24T02:13:17.000Z,83.45
2023-04-24T02:14:17.000Z,83.53
2023-04-24T02:15:17.000Z,83.47
2023-04-24T02:16:17.000Z,83.90
2023-04-24T02:17:18.000Z,83.59
2023-04-24T02:18:17.000Z,83.87
2023-04-24T02:19:18.000Z,83.92
2023-04-24T02:20:18.000Z,83.62
2023-04-24T02:21:17.000Z,83.49
2023-04-24T02:22:17.000Z,83.88
2023-04-24T02:23:17.000Z,83.77
2023-04-24T02:24:18.000Z,83.10
2023-04-24T02:25:18.000Z,83.03
2023-04-24T02:26:18.000Z,83.23
2023-04-24T02:27:18.000Z,83.08
2023-04-24T02:28:18.000Z,83.03
2023-04-24T02:29:18.000Z,83.40
2023-04-24T02:30:18.000Z,83.41
2023-04-24T02:31:18.000Z,83.38
2023-04-24T02:32:18.000Z,83.46
2023-04-24T02:33:18.000Z,83.19
2023-04-24T02:34:18.000Z,83.15
2023-04-24T02:35:18.000Z,82.97
2023-04-24T02:36:18.000Z,83.23
2023-04-24T02:37:18.000Z,83.15
2023-04-24T02:38:18.000Z,83.24
2023-04-24T02:39:18.000Z,83.26
2023-04-24T02:40:18.000Z,83.50
2023-04-24T02:41:18.000Z,83.29
2023-04-24T02:42:18.000Z,83.06
2023-04-24T02:43:18.000Z,83.10
2023-04-24T02:44:18.000Z,83.07
2023-04-24T02:45:18.000Z,82.95
2023-04-24T02:46:18.000Z,82.92
2023-04-24T02:47:18.000Z,83.09
2023-04-24T02:48:18.000Z,83.14
2023-04-24T02:49:18.000Z,83.22
2023-04-24T02:50:18.000Z,83.11
2023-04-24T02:51:18.000Z,83.10
2023-04-24T02:52:18.000Z,83.26
2023-04-24T02:53:18.000Z,83.10
2023-04-24T02:54:17.000Z,83.26
2023-04-24T02:55:18.000Z,83.56
2023-04-24T02:56:18.000Z,83.88
2023-04-24T02:57:17.000Z,84.11
2023-04-24T02:58:19.000Z,83.76
2023-04-24T02:59:17.000Z,83.94
2023-04-24T03:00:18.000Z,83.75
2023-04-24T03:01:17.000Z,83.81
2023-04-24T03:02:18.000Z,83.95
2023-04-24T03:03:18.000Z,84.20
2023-04-24T03:04:19.000Z,84.14
2023-04-24T03:05:17.000Z,84.25
2023-04-24T03:06:17.000Z,84.23
2023-04-24T03:07:20.000Z,84.31
2023-04-24T03:08:17.000Z,84.41
2023-04-24T03:09:18.000Z,84.33
2023-04-24T03:10:18.000Z,84.39
2023-04-24T03:11:17.000Z,85.01
2023-04-24T03:12:17.000Z,85.56
2023-04-24T03:13:17.000Z,86.27
2023-04-24T03:14:17.000Z,86.29
2023-04-24T03:15:18.000Z,88.84
2023-04-24T03:16:18.000Z,90.89
2023-04-24T03:17:18.000Z,91.06
2023-04-24T03:18:17.000Z,91.48
2023-04-24T03:19:17.000Z,89.55
2023-04-24T03:20:17.000Z,89.74
2023-04-24T03:21:18.000Z,90.30
2023-04-24T03:22:17.000Z,91.04
2023-04-24T03:23:17.000Z,91.50
2023-04-24T03:24:17.000Z,92.36
2023-04-24T03:25:18.000Z,94.46
2023-04-24T03:26:18.000Z,95.40
2023-04-24T03:27:18.000Z,94.90
2023-04-24T03:28:19.000Z,95.40
2023-04-24T03:29:18.000Z,95.03
2023-04-24T03:30:18.000Z,94.41
2023-04-24T03:31:20.000Z,94.64
2023-04-24T03:32:18.000Z,94.46
2023-04-24T03:33:18.000Z,95.95
2023-04-24T03:34:18.000Z,95.75
2023-04-24T03:35:18.000Z,95.77
2023-04-24T03:36:18.000Z,95.80
2023-04-24T03:37:18.000Z,95.08
2023-04-24T03:38:17.000Z,94.90
2023-04-24T03:39:18.000Z,95.07
2023-04-24T03:40:18.000Z,95.04
2023-04-24T03:41:18.000Z,94.70
2023-04-24T03:42:18.000Z,94.58
2023-04-24T03:43:18.000Z,94.33
2023-04-24T03:44:17.000Z,93.55
2023-04-24T03:45:18.000Z,93.47
2023-04-24T03:46:18.000Z,93.46
2023-04-24T03:47:18.000Z,93.55
2023-04-24T03:48:17.000Z,93.45
2023-04-24T03:49:18.000Z,93.60
2023-04-24T03:50:18.000Z,92.83
2023-04-24T03:51:18.000Z,92.94
2023-04-24T03:52:18.000Z,93.06
2023-04-24T03:53:19.000Z,91.84
2023-04-24T03:54:20.000Z,91.61
2023-04-24T03:55:18.000Z,91.37
2023-04-24T03:56:18.000Z,91.11
2023-04-24T03:57:18.000Z,90.77
2023-04-24T03:58:18.000Z,90.92
2023-04-24T03:59:18.000Z,90.56
2023-04-24T04:00:18.000Z,90.10
2023-04-24T04:01:20.000Z,89.75
2023-04-24T04:02:18.000Z,89.46
2023-04-24T04:03:18.000Z,89.03
2023-04-24T04:04:18.000Z,88.78
2023-04-24T04:05:18.000Z,88.74
2023-04-24T04:06:18.000Z,88.80
2023-04-24T04:07:18.000Z,88.83
2023-04-24T04:08:18.000Z,88.76
2023-04-24T04:09:18.000Z,88.81
2023-04-24T04:10:18.000Z,88.72
2023-04-24T04:11:18.000Z,88.57
2023-04-24T04:12:18.000Z,88.73
2023-04-24T04:13:18.000Z,88.74
2023-04-24T04:14:18.000Z,89.08
2023-04-24T04:15:18.000Z,89.02
2023-04-24T04:16:18.000Z,89.28
2023-04-24T04:17:18.000Z,89.61
2023-04-24T04:18:18.000Z,89.56
2023-04-24T04:19:18.000Z,89.58
2023-04-24T04:20:18.000Z,89.65
2023-04-24T04:21:18.000Z,89.50
2023-04-24T04:22:18.000Z,89.09
2023-04-24T04:23:18.000Z,89.11
2023-04-24T04:24:19.000Z,89.86
2023-04-24T04:25:19.000Z,89.76
2023-04-24T04:26:18.000Z,90.14
2023-04-24T04:27:18.000Z,89.85
2023-04-24T04:28:19.000Z,90.08
2023-04-24T04:29:18.000Z,89.42
2023-04-24T04:30:17.000Z,89.19
2023-04-24T04:31:19.000Z,88.92
2023-04-24T04:32:17.000Z,88.76
2023-04-24T04:33:19.000Z,88.74
2023-04-24T04:34:17.000Z,88.82
2023-04-24T04:35:17.000Z,88.58
2023-04-24T04:36:18.000Z,88.71
2023-04-24T04:37:18.000Z,88.83
2023-04-24T04:38:18.000Z,88.93
2023-04-24T04:39:18.000Z,88.81
2023-04-24T04:40:17.000Z,88.63
2023-04-24T04:41:17.000Z,88.62
2023-04-24T04:42:18.000Z,88.83
2023-04-24T04:43:17.000Z,88.92
2023-04-24T04:44:17.000Z,88.88
2023-04-24T04:45:18.000Z,88.74
2023-04-24T04:46:18.000Z,89.06
2023-04-24T04:47:20.000Z,88.51
2023-04-24T04:48:18.000Z,88.69
2023-04-24T04:49:18.000Z,88.89
2023-04-24T04:50:19.000Z,88.82
2023-04-24T04:51:17.000Z,88.44
2023-04-24T04:52:18.000Z,88.62
2023-04-24T04:53:17.000Z,88.47
2023-04-24T04:54:17.000Z,88.54
2023-04-24T04:55:19.000Z,88.74
2023-04-24T04:56:17.000Z,88.63
2023-04-24T04:57:17.000Z,88.24
2023-04-24T04:58:17.000Z,87.84
2023-04-24T04:59:17.000Z,87.42
2023-04-24T05:00:17.000Z,86.87
2023-04-24T05:01:17.000Z,86.26
2023-04-24T05:02:17.000Z,86.08
2023-04-24T05:03:17.000Z,86.19
2023-04-24T05:04:17.000Z,86.57
2023-04-24T05:05:17.000Z,86.40
2023-04-24T05:06:17.000Z,86.43
2023-04-24T05:07:17.000Z,86.38
2023-04-24T05:08:17.000Z,86.31
2023-04-24T05:09:17.000Z,86.34
2023-04-24T05:10:17.000Z,86.20
2023-04-24T05:11:17.000Z,86.09
2023-04-24T05:12:17.000Z,86.29
2023-04-24T05:13:17.000Z,86.40
2023-04-24T05:14:18.000Z,86.26
2023-04-24T05:15:17.000Z,86.29
2023-04-24T05:16:17.000Z,86.58
2023-04-24T05:17:17.000Z,86.69
2023-04-24T05:18:17.000Z,87.04
2023-04-24T05:19:17.000Z,87.06
2023-04-24T05:20:17.000Z,86.92
2023-04-24T05:21:17.000Z,86.98
2023-04-24T05:22:20.000Z,87.16
2023-04-24T05:23:17.000Z,87.28
2023-04-24T05:24:17.000Z,87.26
2023-04-24T05:25:17.000Z,87.35
2023-04-24T05:26:18.000Z,87.57
2023-04-24T05:27:18.000Z,87.18
2023-04-24T05:28:18.000Z,87.01
2023-04-24T05:29:18.000Z,86.93
2023-04-24T05:30:18.000Z,86.98
2023-04-24T05:31:18.000Z,87.00
2023-04-24T05:32:18.000Z,87.02
2023-04-24T05:33:18.000Z,87.39
2023-04-24T05:34:18.000Z,86.92
2023-04-24T05:35:18.000Z,86.84
2023-04-24T05:36:18.000Z,86.78
2023-04-24T05:37:18.000Z,86.13
2023-04-24T05:38:19.000Z,86.10
2023-04-24T05:39:19.000Z,86.17
2023-04-24T05:40:18.000Z,86.60
2023-04-24T05:41:18.000Z,87.28
2023-04-24T05:42:18.000Z,87.21
2023-04-24T05:43:18.000Z,87.23
2023-04-24T05:44:18.000Z,86.87
2023-04-24T05:45:18.000Z,86.82
2023-04-24T05:46:18.000Z,86.55
2023-04-24T05:47:18.000Z,85.50
2023-04-24T05:48:18.000Z,84.59
2023-04-24T05:49:18.000Z,83.96
2023-04-24T05:50:18.000Z,84.14
2023-04-24T05:51:18.000Z,84.67
2023-04-24T05:52:18.000Z,84.71
2023-04-24T05:53:18.000Z,84.99
2023-04-24T05:54:18.000Z,85.17
2023-04-24T05:55:18.000Z,84.92
2023-04-24T05:56:18.000Z,84.48
2023-04-24T05:57:18.000Z,84.57
2023-04-24T05:58:17.000Z,84.72
2023-04-24T05:59:18.000Z,84.86
2023-04-24T06:00:19.000Z,84.85
2023-04-24T06:01:18.000Z,85.02
2023-04-24T06:02:17.000Z,85.15
2023-04-24T06:03:17.000Z,85.59
2023-04-24T06:04:17.000Z,86.04
2023-04-24T06:05:17.000Z,85.46
2023-04-24T06:06:18.000Z,85.05
2023-04-24T06:07:17.000Z,84.75
2023-04-24T06:08:17.000Z,84.65
2023-04-24T06:09:17.000Z,84.65
2023-04-24T06:10:17.000Z,84.44
2023-04-24T06:11:17.000Z,84.06
2023-04-24T06:12:17.000Z,83.68
2023-04-24T06:13:17.000Z,82.88
2023-04-24T06:14:18.000Z,82.40
2023-04-24T06:15:17.000Z,82.74
2023-04-24T06:16:17.000Z,82.93
2023-04-24T06:17:17.000Z,83.12
2023-04-24T06:18:17.000Z,83.39
2023-04-24T06:19:17.000Z,83.03
2023-04-24T06:20:17.000Z,83.16
2023-04-24T06:21:17.000Z,83.33
2023-04-24T06:22:17.000Z,83.44
2023-04-24T06:23:17.000Z,83.05
2023-04-24T06:24:17.000Z,82.96
2023-04-24T06:25:18.000Z,83.34
2023-04-24T06:26:17.000Z,83.50
2023-04-24T06:27:17.000Z,83.41
2023-04-24T06:28:17.000Z,83.06
2023-04-24T06:29:17.000Z,83.15
2023-04-24T06:30:17.000Z,83.42
2023-04-24T06:31:17.000Z,83.60
2023-04-24T06:32:17.000Z,83.61
2023-04-24T06:33:17.000Z,83.63
2023-04-24T06:34:17.000Z,83.51
2023-04-24T06:35:17.000Z,83.51
2023-04-24T06:36:17.000Z,84.15
2023-04-24T06:37:18.000Z,84.29
2023-04-24T06:38:17.000Z,83.93
2023-04-24T06:39:17.000Z,84.33
2023-04-24T06:40:21.000Z,84.36
2023-04-24T06:41:17.000Z,83.70
2023-04-24T06:42:20.000Z,84.14
2023-04-24T06:43:18.000Z,84.29
2023-04-24T06:44:17.000Z,82.88
2023-04-24T06:45:17.000Z,82.38
2023-04-24T06:46:17.000Z,82.46
2023-04-24T06:47:18.000Z,82.11
2023-04-24T06:48:17.000Z,82.96
2023-04-24T06:49:17.000Z,82.59
2023-04-24T06:50:17.000Z,81.97
2023-04-24T06:51:17.000Z,82.19
2023-04-24T06:52:18.000Z,81.91
2023-04-24T06:53:17.000Z,82.37
2023-04-24T06:54:17.000Z,81.15
2023-04-24T06:55:17.000Z,80.50
2023-04-24T06:56:17.000Z,80.98
2023-04-24T06:57:18.000Z,80.19
2023-04-24T06:58:17.000Z,81.34
2023-04-24T06:59:17.000Z,81.10
2023-04-24T07:00:18.000Z,81.51
2023-04-24T07:01:18.000Z,81.72
2023-04-24T07:02:18.000Z,80.62
2023-04-24T07:03:17.000Z,79.76
2023-04-24T07:04:18.000Z,80.24
2023-04-24T07:05:19.000Z,80.46
2023-04-24T07:06:21.000Z,80.47
2023-04-24T07:07:18.000Z,80.41
2023-04-24T07:08:18.000Z,80.89
2023-04-24T07:09:18.000Z,79.57
2023-04-24T07:10:18.000Z,79.33
2023-04-24T07:11:18.000Z,80.15
2023-04-24T07:12:20.000Z,79.95
2023-04-24T07:13:18.000Z,79.86
2023-04-24T07:14:18.000Z,80.17
2023-04-24T07:15:18.000Z,79.34
2023-04-24T07:16:18.000Z,80.45
2023-04-24T07:17:18.000Z,81.16
2023-04-24T07:18:18.000Z,81.72
2023-04-24T07:19:18.000Z,82.23
2023-04-24T07:20:18.000Z,82.59
2023-04-24T07:21:18.000Z,83.60
2023-04-24T07:22:18.000Z,84.17
2023-04-24T07:23:19.000Z,84.74
2023-04-24T07:24:18.000Z,85.91
2023-04-24T07:25:18.000Z,85.88
2023-04-24T07:26:19.000Z,83.86
2023-04-24T07:27:18.000Z,80.13
2023-04-24T07:28:18.000Z,79.65
2023-04-24T07:29:18.000Z,80.42
2023-04-24T07:30:17.000Z,80.87
2023-04-24T07:31:17.000Z,81.54
2023-04-24T07:32:17.000Z,82.01
2023-04-24T07:33:17.000Z,82.93
2023-04-24T07:34:17.000Z,83.37
2023-04-24T07:35:17.000Z,83.04
2023-04-24T07:36:18.000Z,82.72
2023-04-24T07:37:18.000Z,81.20
2023-04-24T07:38:21.000Z,82.47
2023-04-24T07:39:17.000Z,81.36
2023-04-24T07:40:18.000Z,81.38
2023-04-24T07:41:17.000Z,79.36
2023-04-24T07:42:17.000Z,79.46
2023-04-24T07:43:19.000Z,80.40
2023-04-24T07:44:17.000Z,80.56
2023-04-24T07:45:17.000Z,80.42
2023-04-24T07:46:18.000Z,80.25
2023-04-24T07:47:17.000Z,81.16
2023-04-24T07:48:17.000Z,80.91
2023-04-24T07:49:17.000Z,80.71
2023-04-24T07:50:17.000Z,80.25
2023-04-24T07:51:17.000Z,79.42
2023-04-24T07:52:17.000Z,80.01
2023-04-24T07:53:17.000Z,79.77
2023-04-24T07:54:17.000Z,79.73
2023-04-24T07:55:17.000Z,79.43
2023-04-24T07:56:17.000Z,79.40
2023-04-24T07:57:17.000Z,78.54
2023-04-24T07:58:17.000Z,79.79
2023-04-24T07:59:17.000Z,79.81
2023-04-24T08:00:18.000Z,79.40
2023-04-24T08:01:17.000Z,79.46
2023-04-24T08:02:17.000Z,78.13
2023-04-24T08:03:19.000Z,78.52
2023-04-24T08:04:17.000Z,78.41
2023-04-24T08:05:17.000Z,78.66
2023-04-24T08:06:17.000Z,77.93
2023-04-24T08:07:17.000Z,78.62
2023-04-24T08:08:21.000Z,78.03
2023-04-24T08:09:18.000Z,78.89
2023-04-24T08:10:17.000Z,79.99
2023-04-24T08:11:17.000Z,79.91
2023-04-24T08:12:17.000Z,79.48
2023-04-24T08:13:17.000Z,78.59
2023-04-24T08:14:17.000Z,78.32
2023-04-24T08:15:17.000Z,77.80
2023-04-24T08:16:17.000Z,77.24
2023-04-24T08:17:17.000Z,76.82
2023-04-24T08:18:17.000Z,77.49
2023-04-24T08:19:17.000Z,76.92
2023-04-24T08:20:17.000Z,78.17
2023-04-24T08:21:18.000Z,77.72
2023-04-24T08:22:17.000Z,78.09
2023-04-24T08:23:17.000Z,77.27
2023-04-24T08:24:17.000Z,76.22
2023-04-24T08:25:18.000Z,75.98
2023-04-24T08:26:17.000Z,75.49
2023-04-24T08:27:17.000Z,73.71
2023-04-24T08:28:19.000Z,73.58
2023-04-24T08:29:17.000Z,72.70
2023-04-24T08:30:17.000Z,73.24
2023-04-24T08:31:17.000Z,73.67
2023-04-24T08:32:17.000Z,74.57
2023-04-24T08:33:17.000Z,75.01
2023-04-24T08:34:17.000Z,74.77
2023-04-24T08:35:18.000Z,74.83
2023-04-24T08:36:17.000Z,75.67
2023-04-24T08:37:18.000Z,75.97
2023-04-24T08:38:18.000Z,76.41
2023-04-24T08:39:18.000Z,74.48
2023-04-24T08:40:26.000Z,74.22
2023-04-24T08:41:18.000Z,72.29
2023-04-24T08:42:19.000Z,72.04
2023-04-24T08:43:21.000Z,72.10
2023-04-24T08:44:18.000Z,72.02
2023-04-24T08:45:18.000Z,70.46
2023-04-24T08:46:19.000Z,70.87
2023-04-24T08:47:19.000Z,70.85
2023-04-24T08:48:18.000Z,71.66
2023-04-24T08:49:18.000Z,71.52
2023-04-24T08:50:18.000Z,71.60
2023-04-24T08:51:19.000Z,71.79
2023-04-24T08:52:18.000Z,71.67
2023-04-24T08:53:18.000Z,70.76
2023-04-24T08:54:18.000Z,71.68
2023-04-24T08:55:20.000Z,71.37
2023-04-24T08:56:18.000Z,70.21
2023-04-24T08:57:18.000Z,70.55
2023-04-24T08:58:19.000Z,71.49
2023-04-24T08:59:20.000Z,71.01
2023-04-24T09:00:20.000Z,69.58
2023-04-24T09:01:19.000Z,69.98
2023-04-24T09:02:17.000Z,69.00
2023-04-24T09:03:18.000Z,69.75
2023-04-24T09:04:19.000Z,69.69
2023-04-24T09:05:20.000Z,69.70
2023-04-24T09:06:20.000Z,69.17
2023-04-24T09:07:18.000Z,67.92
2023-04-24T09:08:18.000Z,68.02
2023-04-24T09:09:18.000Z,66.99
2023-04-24T09:10:18.000Z,66.25
2023-04-24T09:11:17.000Z,65.18
2023-04-24T09:12:18.000Z,65.22
2023-04-24T09:13:18.000Z,63.97
2023-04-24T09:14:18.000Z,63.61
2023-04-24T09:15:18.000Z,64.73
2023-04-24T09:16:19.000Z,64.48
2023-04-24T09:17:17.000Z,64.00
2023-04-24T09:18:18.000Z,64.98
2023-04-24T09:19:17.000Z,64.61
2023-04-24T09:20:17.000Z,64.64
2023-04-24T09:21:20.000Z,65.15
2023-04-24T09:22:17.000Z,65.54
2023-04-24T09:23:17.000Z,65.43
2023-04-24T09:24:19.000Z,64.47
2023-04-24T09:25:17.000Z,64.64
2023-04-24T09:26:20.000Z,64.46
2023-04-24T09:27:18.000Z,64.02
2023-04-24T09:28:17.000Z,64.60
2023-04-24T09:29:17.000Z,64.79
2023-04-24T09:30:20.000Z,63.70
2023-04-24T09:31:18.000Z,64.35
2023-04-24T09:32:20.000Z,64.95
2023-04-24T09:33:17.000Z,65.45
2023-04-24T09:34:22.000Z,65.41
2023-04-24T09:35:17.000Z,65.44
2023-04-24T09:36:17.000Z,65.17
2023-04-24T09:37:27.000Z,64.95
2023-04-24T09:38:19.000Z,65.51
2023-04-24T09:39:19.000Z,65.97
2023-04-24T09:40:19.000Z,65.76
2023-04-24T09:41:17.000Z,65.58
2023-04-24T09:42:18.000Z,65.95
2023-04-24T09:43:17.000Z,66.25
2023-04-24T09:44:19.000Z,65.98
2023-04-24T09:45:17.000Z,66.07
2023-04-24T09:46:17.000Z,65.96
2023-04-24T09:47:17.000Z,65.98
2023-04-24T09:48:17.000Z,65.62
2023-04-24T09:49:23.000Z,65.57
2023-04-24T09:50:17.000Z,65.32
2023-04-24T09:51:32.000Z,65.88
2023-04-24T09:52:17.000Z,66.38
2023-04-24T09:53:23.000Z,65.81
2023-04-24T09:54:19.000Z,66.44
2023-04-24T09:55:20.000Z,67.04
2023-04-24T09:56:19.000Z,65.07
2023-04-24T09:57:17.000Z,64.51
2023-04-24T09:58:23.000Z,65.97
2023-04-24T09:59:18.000Z,65.07
2023-04-24T10:00:21.000Z,64.65
2023-04-24T10:01:30.000Z,65.67
2023-04-24T10:02:19.000Z,65.65
2023-04-24T10:03:17.000Z,65.42
2023-04-24T10:04:21.000Z,62.61
2023-04-24T10:05:18.000Z,63.34
2023-04-24T10:06:18.000Z,63.24
2023-04-24T10:07:18.000Z,63.39
2023-04-24T10:08:18.000Z,63.24
2023-04-24T10:09:20.000Z,63.52
2023-04-24T10:10:18.000Z,63.34
2023-04-24T10:11:18.000Z,62.93
2023-04-24T10:12:18.000Z,63.34
2023-04-24T10:13:18.000Z,63.55
2023-04-24T10:14:20.000Z,63.13
2023-04-24T10:15:21.000Z,62.21
2023-04-24T10:16:20.000Z,62.78
2023-04-24T10:17:18.000Z,63.31
2023-04-24T10:18:20.000Z,63.04
2023-04-24T10:19:20.000Z,62.96
2023-04-24T10:20:19.000Z,62.94
2023-04-24T10:21:18.000Z,63.64
2023-04-24T10:22:18.000Z,63.99
2023-04-24T10:23:19.000Z,63.99
2023-04-24T10:24:18.000Z,64.20
2023-04-24T10:25:20.000Z,64.16
2023-04-24T10:26:19.000Z,64.29
2023-04-24T10:27:20.000Z,64.39
2023-04-24T10:28:19.000Z,64.54
2023-04-24T10:29:18.000Z,63.78
2023-04-24T10:30:19.000Z,64.86
2023-04-24T10:31:18.000Z,64.84
2023-04-24T10:32:19.000Z,64.68
2023-04-24T10:33:18.000Z,64.75
2023-04-24T10:34:20.000Z,64.50
2023-04-24T10:35:18.000Z,64.80
2023-04-24T10:36:21.000Z,65.19
2023-04-24T10:37:18.000Z,66.31
2023-04-24T10:38:24.000Z,68.93
2023-04-24T10:39:19.000Z,70.73
2023-04-24T10:40:29.000Z,71.76
2023-04-24T10:41:25.000Z,72.04
2023-04-24T10:42:17.000Z,74.42
2023-04-24T10:43:18.000Z,74.91
2023-04-24T10:44:21.000Z,75.20
2023-04-24T10:45:20.000Z,74.84
2023-04-24T10:46:20.000Z,74.40
2023-04-24T10:47:17.000Z,75.25
2023-04-24T10:48:17.000Z,76.14
2023-04-24T10:49:27.000Z,76.17
2023-04-24T10:50:18.000Z,76.60
2023-04-24T10:51:21.000Z,76.50
2023-04-24T10:52:18.000Z,76.92
2023-04-24T10:53:28.000Z,76.71
2023-04-24T10:54:36.000Z,76.81
2023-04-24T10:55:27.000Z,76.05
2023-04-24T10:56:17.000Z,76.06
2023-04-24T10:57:27.000Z,76.04
2023-04-24T10:58:21.000Z,76.22
2023-04-24T10:59:26.000Z,76.31
2023-04-24T11:00:19.000Z,76.91
2023-04-24T11:01:26.000Z,76.43
2023-04-24T11:02:32.000Z,75.96
2023-04-24T11:03:24.000Z,75.22
2023-04-24T11:04:29.000Z,74.65
2023-04-24T11:05:19.000Z,73.78
2023-04-24T11:06:45.000Z,73.20
2023-04-24T11:07:20.000Z,71.92
2023-04-24T11:08:27.000Z,72.61
2023-04-24T11:09:20.000Z,72.97
2023-04-24T11:10:25.000Z,73.04
2023-04-24T11:11:17.000Z,72.37
2023-04-24T11:12:18.000Z,72.12
2023-04-24T11:13:21.000Z,70.55
2023-04-24T11:14:17.000Z,70.69
2023-04-24T11:15:19.000Z,70.16
2023-04-24T11:16:28.000Z,69.81
2023-04-24T11:17:27.000Z,69.49
2023-04-24T11:18:17.000Z,70.03
2023-04-24T11:19:26.000Z,69.49
2023-04-24T11:20:17.000Z,70.08
2023-04-24T11:20:17.000Z,70.08
2023-04-24T11:21:17.000Z,68.74
2023-04-24T11:22:18.000Z,68.53
2023-04-24T11:23:18.000Z,66.79
2023-04-24T11:24:27.000Z,66.96
2023-04-24T11:25:17.000Z,67.15
2023-04-24T11:26:21.000Z,66.46
2023-04-24T11:27:21.000Z,66.02
2023-04-24T11:28:18.000Z,66.30
2023-04-24T11:29:19.000Z,66.85
2023-04-24T11:30:19.000Z,67.14
2023-04-24T11:31:27.000Z,66.90
2023-04-24T11:32:39.000Z,66.21
2023-04-24T11:33:19.000Z,66.07
2023-04-24T11:34:17.000Z,65.21
2023-04-24T11:35:21.000Z,65.60
2023-04-24T11:36:18.000Z,65.84
2023-04-24T11:37:18.000Z,66.08
2023-04-24T11:38:17.000Z,66.10
2023-04-24T11:39:17.000Z,64.52
2023-04-24T11:40:22.000Z,64.40
2023-04-24T11:41:17.000Z,64.38
2023-04-24T11:42:17.000Z,64.89
2023-04-24T11:43:20.000Z,65.50
2023-04-24T11:44:20.000Z,64.46
2023-04-24T11:45:23.000Z,63.53
2023-04-24T11:46:19.000Z,64.21
2023-04-24T11:47:17.000Z,63.01
2023-04-24T11:48:18.000Z,63.11
2023-04-24T11:49:17.000Z,63.41
2023-04-24T11:50:20.000Z,63.57
2023-04-24T11:51:17.000Z,64.00
2023-04-24T11:52:18.000Z,63.68
2023-04-24T11:53:21.000Z,62.41
2023-04-24T11:54:17.000Z,62.63
2023-04-24T11:55:28.000Z,63.49
2023-04-24T11:56:18.000Z,62.36
2023-04-24T11:57:21.000Z,62.72
2023-04-24T11:58:20.000Z,62.84
2023-04-24T11:59:18.000Z,62.24
2023-04-24T12:00:20.000Z,61.66
2023-04-24T12:01:17.000Z,61.99
2023-04-24T12:02:24.000Z,61.65
2023-04-24T12:03:17.000Z,61.52
2023-04-24T12:04:18.000Z,61.28
2023-04-24T12:05:22.000Z,61.82
2023-04-24T12:06:18.000Z,62.59
2023-04-24T12:07:17.000Z,62.61
2023-04-24T12:08:27.000Z,62.35
2023-04-24T12:09:17.000Z,61.61
2023-04-24T12:10:21.000Z,61.37
2023-04-24T12:11:17.000Z,61.04
2023-04-24T12:12:17.000Z,61.48
2023-04-24T12:13:17.000Z,61.32
2023-04-24T12:14:17.000Z,60.85
2023-04-24T12:15:19.000Z,61.21
2023-04-24T12:16:17.000Z,61.71
2023-04-24T12:17:27.000Z,61.04
2023-04-24T12:18:17.000Z,60.88
2023-04-24T12:19:20.000Z,60.04
2023-04-24T12:20:31.000Z,60.50
2023-04-24T12:21:19.000Z,61.13
2023-04-24T12:22:17.000Z,61.58
2023-04-24T12:23:28.000Z,60.84
2023-04-24T12:24:17.000Z,61.47
2023-04-24T12:25:18.000Z,62.01
2023-04-24T12:26:19.000Z,62.33
2023-04-24T12:27:19.000Z,62.37
2023-04-24T12:28:17.000Z,61.94
2023-04-24T12:29:20.000Z,61.44
2023-04-24T12:30:17.000Z,61.28
2023-04-24T12:31:20.000Z,61.62
2023-04-24T12:32:17.000Z,61.76
2023-04-24T12:33:20.000Z,62.27
2023-04-24T12:34:22.000Z,62.25
2023-04-24T12:35:22.000Z,60.76
2023-04-24T12:36:19.000Z,59.82
2023-04-24T12:37:17.000Z,59.21
2023-04-24T12:38:21.000Z,59.06
2023-04-24T12:39:18.000Z,59.49
2023-04-24T12:40:19.000Z,59.72
2023-04-24T12:41:18.000Z,59.60
2023-04-24T12:42:25.000Z,58.48
2023-04-24T12:43:18.000Z,57.93
2023-04-24T12:44:17.000Z,58.93
2023-04-24T12:45:17.000Z,59.34
2023-04-24T12:46:17.000Z,59.51
2023-04-24T12:47:17.000Z,59.17
2023-04-24T12:48:17.000Z,58.84
2023-04-24T12:49:17.000Z,59.42
2023-04-24T12:50:17.000Z,59.04
2023-04-24T12:51:17.000Z,58.05